createdAt,value
2018-05-12T00:00:15.060Z,0
2018-05-12T00:01:24.510Z,0
2018-05-12T00:02:33.703Z,0
2018-05-12T00:03:43.131Z,0
2018-05-12T00:04:53.065Z,0
2018-05-12T00:06:02.961Z,0
2018-05-12T00:07:12.713Z,0
2018-05-12T00:08:21.929Z,0
2018-05-12T00:09:31.181Z,0
2018-05-12T00:10:40.916Z,0
2018-05-12T00:11:50.897Z,0
2018-05-12T00:13:00.122Z,0
2018-05-12T00:14:09.076Z,0
2018-05-12T00:15:18.651Z,0
2018-05-12T00:16:28.410Z,0
2018-05-12T00:17:37.635Z,0
2018-05-12T00:18:46.864Z,0
2018-05-12T00:19:56.103Z,0
2018-05-12T00:21:05.376Z,0
2018-05-12T00:22:14.621Z,0
2018-05-12T00:23:23.889Z,0
2018-05-12T00:24:33.172Z,0
2018-05-12T00:25:42.196Z,0
2018-05-12T00:26:51.418Z,0
2018-05-12T00:28:00.927Z,0
2018-05-12T00:29:10.406Z,0
2018-05-12T00:30:20.120Z,0
2018-05-12T00:31:29.227Z,0
2018-05-12T00:32:39.078Z,0
2018-05-12T00:33:48.397Z,0
2018-05-12T00:34:57.871Z,0
2018-05-12T00:36:07.233Z,0
2018-05-12T00:37:17.061Z,0
2018-05-12T00:38:26.366Z,0
2018-05-12T00:39:35.943Z,0
2018-05-12T00:40:45.794Z,0
2018-05-12T00:41:55.278Z,0
2018-05-12T00:43:05.447Z,0
2018-05-12T00:44:15.172Z,0
2018-05-12T00:45:24.391Z,0
2018-05-12T00:46:33.145Z,0
2018-05-12T00:47:43.329Z,0
2018-05-12T00:48:52.648Z,0
2018-05-12T00:50:02.456Z,0
2018-05-12T00:51:12.406Z,0
2018-05-12T00:52:21.979Z,0
2018-05-12T00:53:31.457Z,0
2018-05-12T00:54:40.502Z,0
2018-05-12T00:55:50.145Z,0
2018-05-12T00:56:59.431Z,0
2018-05-12T00:58:08.959Z,0
2018-05-12T00:59:18.167Z,0
2018-05-12T01:00:27.999Z,0
2018-05-12T01:01:37.204Z,0
2018-05-12T01:02:46.475Z,0
2018-05-12T01:03:56.077Z,0
2018-05-12T01:05:05.276Z,0
2018-05-12T01:06:14.743Z,0
2018-05-12T01:07:24.151Z,0
2018-05-12T01:08:33.340Z,0
2018-05-12T01:09:42.530Z,0
2018-05-12T01:10:51.988Z,0
2018-05-12T01:12:01.886Z,0
2018-05-12T01:13:11.701Z,0
2018-05-12T01:14:21.222Z,0
2018-05-12T01:15:30.484Z,0
2018-05-12T01:16:40.526Z,0
2018-05-12T01:17:50.355Z,0
2018-05-12T01:19:00.177Z,0
2018-05-12T01:20:09.142Z,0
2018-05-12T01:21:18.694Z,0
2018-05-12T01:22:28.543Z,0
2018-05-12T01:23:38.074Z,0
2018-05-12T01:24:47.825Z,0
2018-05-12T01:25:58.029Z,0
2018-05-12T01:27:07.569Z,0
2018-05-12T01:28:17.012Z,0
2018-05-12T01:29:27.132Z,0
2018-05-12T01:30:36.721Z,0
2018-05-12T01:31:46.918Z,0
2018-05-12T01:32:56.751Z,0
2018-05-12T01:34:06.240Z,0
2018-05-12T01:35:15.708Z,0
2018-05-12T01:36:25.176Z,0
2018-05-12T01:37:34.476Z,0
2018-05-12T01:38:43.855Z,0
2018-05-12T01:39:52.903Z,0
2018-05-12T01:41:02.131Z,0
2018-05-12T01:42:11.890Z,0
2018-05-12T01:43:21.451Z,0
2018-05-12T01:44:30.980Z,0
2018-05-12T01:45:40.306Z,0
2018-05-12T01:46:49.834Z,0
2018-05-12T01:47:59.617Z,0
2018-05-12T01:49:09.497Z,0
2018-05-12T01:50:18.784Z,0
2018-05-12T01:51:28.553Z,0
2018-05-12T01:52:37.777Z,0
2018-05-12T01:53:46.676Z,0
2018-05-12T01:54:56.361Z,0
2018-05-12T01:56:05.799Z,0
2018-05-12T01:57:15.254Z,0
2018-05-12T01:58:24.163Z,0
2018-05-12T01:59:33.366Z,0
2018-05-12T02:00:42.288Z,0
2018-05-12T02:01:51.203Z,0
2018-05-12T02:03:00.170Z,0
2018-05-12T02:04:09.589Z,0
2018-05-12T02:05:18.494Z,0
2018-05-12T02:06:28.202Z,0
2018-05-12T02:07:37.649Z,0
2018-05-12T02:08:47.165Z,0
2018-05-12T02:09:56.080Z,0
2018-05-12T02:11:05.322Z,0
2018-05-12T02:12:15.003Z,0
2018-05-12T02:13:49.832Z,0
2018-05-12T02:14:59.029Z,0
2018-05-12T02:16:08.456Z,0
2018-05-12T02:17:17.369Z,0
2018-05-12T02:18:26.546Z,0
2018-05-12T02:19:35.711Z,0
2018-05-12T02:20:45.188Z,0
2018-05-12T02:21:55.167Z,0
2018-05-12T02:23:04.353Z,0
2018-05-12T02:24:14.051Z,0
2018-05-12T02:25:23.774Z,0
2018-05-12T02:26:33.456Z,0
2018-05-12T02:27:43.199Z,0
2018-05-12T02:28:51.849Z,0
2018-05-12T02:30:01.272Z,0
2018-05-12T02:31:10.726Z,0
2018-05-12T02:32:20.423Z,0
2018-05-12T02:33:29.613Z,0
2018-05-12T02:34:39.550Z,0
2018-05-12T02:35:49.509Z,0
2018-05-12T02:36:58.947Z,0
2018-05-12T02:38:08.688Z,0
2018-05-12T02:39:18.423Z,0
2018-05-12T02:40:28.143Z,0
2018-05-12T02:41:38.136Z,0
2018-05-12T02:42:47.319Z,0
2018-05-12T02:43:56.261Z,0
2018-05-12T02:45:05.965Z,0
2018-05-12T02:46:15.793Z,0
2018-05-12T02:47:25.238Z,0
2018-05-12T02:48:34.158Z,0
2018-05-12T02:49:43.846Z,0
2018-05-12T02:50:53.542Z,0
2018-05-12T02:52:02.973Z,0
2018-05-12T02:53:12.432Z,0
2018-05-12T02:54:21.598Z,0
2018-05-12T02:55:30.512Z,0
2018-05-12T02:56:39.949Z,0
2018-05-12T02:57:49.412Z,0
2018-05-12T02:58:58.820Z,0
2018-05-12T03:00:08.774Z,0
2018-05-12T03:01:18.470Z,0
2018-05-12T03:02:27.904Z,0
2018-05-12T03:03:37.638Z,0
2018-05-12T03:04:47.622Z,0
2018-05-12T03:05:57.579Z,0
2018-05-12T03:07:06.739Z,0
2018-05-12T03:08:16.723Z,0
2018-05-12T03:09:26.414Z,0
2018-05-12T03:10:35.647Z,0
2018-05-12T03:11:44.826Z,0
2018-05-12T03:12:54.528Z,0
2018-05-12T03:14:03.957Z,0
2018-05-12T03:15:13.660Z,0
2018-05-12T03:16:23.103Z,0
2018-05-12T03:17:32.766Z,0
2018-05-12T03:18:42.206Z,0
2018-05-12T03:19:51.366Z,0
2018-05-12T03:21:00.816Z,0
2018-05-12T03:22:10.478Z,0
2018-05-12T03:23:19.896Z,0
2018-05-12T03:24:29.573Z,0
2018-05-12T03:25:38.732Z,0
2018-05-12T03:26:47.428Z,0
2018-05-12T03:27:56.905Z,0
2018-05-12T03:29:06.362Z,0
2018-05-12T03:30:16.043Z,0
2018-05-12T03:31:25.505Z,0
2018-05-12T03:32:35.174Z,0
2018-05-12T03:33:44.601Z,0
2018-05-12T03:34:54.071Z,0
2018-05-12T03:36:03.519Z,0
2018-05-12T03:37:12.943Z,0
2018-05-12T03:38:22.874Z,0
2018-05-12T03:39:32.568Z,0
2018-05-12T03:40:41.995Z,0
2018-05-12T03:41:51.754Z,0
2018-05-12T03:43:01.197Z,0
2018-05-12T03:44:10.911Z,0
2018-05-12T03:45:20.590Z,0
2018-05-12T03:46:30.262Z,0
2018-05-12T03:47:39.446Z,0
2018-05-12T03:48:48.601Z,0
2018-05-12T03:49:58.031Z,0
2018-05-12T03:51:07.472Z,0
2018-05-12T03:52:16.910Z,0
2018-05-12T03:53:26.616Z,0
2018-05-12T03:54:36.043Z,0
2018-05-12T03:55:45.460Z,0
2018-05-12T03:56:54.887Z,0
2018-05-12T03:58:04.828Z,0
2018-05-12T03:59:14.784Z,0
2018-05-12T04:00:24.256Z,0
2018-05-12T04:01:34.283Z,0
2018-05-12T04:02:43.190Z,0
2018-05-12T04:03:52.362Z,0
2018-05-12T04:05:02.065Z,0
2018-05-12T04:06:11.492Z,0
2018-05-12T04:07:21.430Z,0
2018-05-12T04:08:30.590Z,0
2018-05-12T04:09:40.138Z,0
2018-05-12T04:10:49.810Z,4
2018-05-12T04:11:58.968Z,4
2018-05-12T04:13:08.652Z,4
2018-05-12T04:14:18.356Z,4
2018-05-12T04:15:27.790Z,4
2018-05-12T04:16:37.475Z,4
2018-05-12T04:17:46.940Z,0
2018-05-12T04:18:56.170Z,0
2018-05-12T04:20:05.345Z,0
2018-05-12T04:21:15.428Z,0
2018-05-12T04:22:25.117Z,0
2018-05-12T04:23:34.533Z,0
2018-05-12T04:24:43.972Z,0
2018-05-12T04:25:53.148Z,4
2018-05-12T04:27:02.110Z,4
2018-05-12T04:28:11.806Z,4
2018-05-12T04:29:20.974Z,4
2018-05-12T04:30:30.397Z,4
2018-05-12T04:31:39.819Z,4
2018-05-12T04:32:48.991Z,4
2018-05-12T04:33:58.421Z,4
2018-05-12T04:35:07.586Z,0
2018-05-12T04:36:16.763Z,0
2018-05-12T04:37:26.212Z,0
2018-05-12T04:38:35.383Z,0
2018-05-12T04:39:45.090Z,0
2018-05-12T04:40:54.528Z,0
2018-05-12T04:42:04.243Z,0
2018-05-12T04:43:13.547Z,0
2018-05-12T04:44:23.248Z,4
2018-05-12T04:45:32.424Z,4
2018-05-12T04:46:41.605Z,4
2018-05-12T04:47:51.289Z,4
2018-05-12T04:49:00.490Z,4
2018-05-12T04:50:09.918Z,4
2018-05-12T04:51:18.818Z,4
2018-05-12T04:52:27.976Z,4
2018-05-12T04:53:37.667Z,4
2018-05-12T04:54:47.122Z,4
2018-05-12T04:55:56.546Z,4
2018-05-12T04:57:05.734Z,4
2018-05-12T04:58:14.923Z,4
2018-05-12T04:59:23.861Z,4
2018-05-12T05:00:33.862Z,8
2018-05-12T05:01:43.292Z,4
2018-05-12T05:02:52.473Z,4
2018-05-12T05:04:01.383Z,4
2018-05-12T05:05:11.080Z,8
2018-05-12T05:06:20.538Z,8
2018-05-12T05:07:29.983Z,4
2018-05-12T05:08:39.433Z,4
2018-05-12T05:09:48.594Z,4
2018-05-12T05:10:57.776Z,8
2018-05-12T05:12:06.922Z,4
2018-05-12T05:13:16.125Z,8
2018-05-12T05:14:25.856Z,4
2018-05-12T05:15:35.283Z,8
2018-05-12T05:16:44.788Z,8
2018-05-12T05:17:53.959Z,8
2018-05-12T05:19:03.459Z,8
2018-05-12T05:20:12.377Z,8
2018-05-12T05:21:22.361Z,8
2018-05-12T05:22:31.791Z,8
2018-05-12T05:23:41.237Z,8
2018-05-12T05:24:50.682Z,8
2018-05-12T05:25:59.842Z,8
2018-05-12T05:27:09.527Z,8
2018-05-12T05:28:18.705Z,8
2018-05-12T05:29:28.134Z,12
2018-05-12T05:30:37.850Z,12
2018-05-12T05:31:47.028Z,12
2018-05-12T05:32:56.222Z,8
2018-05-12T05:34:05.638Z,8
2018-05-12T05:35:15.236Z,12
2018-05-12T05:36:25.159Z,8
2018-05-12T05:37:34.845Z,12
2018-05-12T05:38:44.272Z,16
2018-05-12T05:39:53.176Z,12
2018-05-12T05:41:02.344Z,16
2018-05-12T05:42:11.277Z,16
2018-05-12T05:43:20.444Z,16
2018-05-12T05:44:30.127Z,16
2018-05-12T05:45:39.621Z,16
2018-05-12T05:46:49.544Z,20
2018-05-12T05:47:58.971Z,16
2018-05-12T05:49:08.652Z,20
2018-05-12T05:50:18.110Z,20
2018-05-12T05:51:27.891Z,20
2018-05-12T05:52:37.359Z,20
2018-05-12T05:53:46.799Z,24
2018-05-12T05:54:56.276Z,20
2018-05-12T05:56:05.482Z,20
2018-05-12T05:57:14.641Z,20
2018-05-12T05:58:23.838Z,20
2018-05-12T05:59:33.528Z,24
2018-05-12T06:00:43.209Z,24
2018-05-12T06:01:53.148Z,24
2018-05-12T06:03:02.605Z,24
2018-05-12T06:04:11.758Z,24
2018-05-12T06:05:21.190Z,24
2018-05-12T06:06:30.393Z,28
2018-05-12T06:07:39.827Z,24
2018-05-12T06:08:48.984Z,28
2018-05-12T06:09:58.423Z,28
2018-05-12T06:11:07.834Z,28
2018-05-12T06:12:17.268Z,32
2018-05-12T06:13:26.465Z,28
2018-05-12T06:14:36.157Z,32
2018-05-12T06:15:45.574Z,28
2018-05-12T06:16:55.036Z,24
2018-05-12T06:18:04.654Z,20
2018-05-12T06:19:14.402Z,20
2018-05-12T06:20:23.847Z,16
2018-05-12T06:21:33.329Z,16
2018-05-12T06:22:42.775Z,16
2018-05-12T06:23:52.495Z,20
2018-05-12T06:25:02.464Z,20
2018-05-12T06:26:11.901Z,16
2018-05-12T06:27:21.875Z,20
2018-05-12T06:28:31.428Z,20
2018-05-12T06:29:41.117Z,20
2018-05-12T06:30:50.548Z,20
2018-05-12T06:31:59.957Z,24
2018-05-12T06:33:09.917Z,20
2018-05-12T06:34:19.138Z,20
2018-05-12T06:35:28.585Z,20
2018-05-12T06:36:38.021Z,24
2018-05-12T06:37:47.575Z,20
2018-05-12T06:38:57.052Z,20
2018-05-12T06:40:06.257Z,20
2018-05-12T06:41:15.719Z,20
2018-05-12T06:42:25.396Z,20
2018-05-12T06:43:34.810Z,20
2018-05-12T06:44:44.515Z,24
2018-05-12T06:45:54.484Z,24
2018-05-12T06:47:03.926Z,24
2018-05-12T06:48:13.087Z,24
2018-05-12T06:49:22.391Z,24
2018-05-12T06:50:31.865Z,24
2018-05-12T06:51:41.820Z,24
2018-05-12T06:52:51.915Z,24
2018-05-12T06:54:01.611Z,28
2018-05-12T06:55:10.522Z,24
2018-05-12T06:56:19.945Z,28
2018-05-12T06:57:29.368Z,28
2018-05-12T06:58:38.816Z,32
2018-05-12T06:59:48.550Z,28
2018-05-12T07:00:58.023Z,28
2018-05-12T07:02:07.696Z,32
2018-05-12T07:03:16.855Z,28
2018-05-12T07:04:26.022Z,28
2018-05-12T07:05:35.459Z,32
2018-05-12T07:06:44.661Z,36
2018-05-12T07:07:54.070Z,32
2018-05-12T07:09:03.241Z,32
2018-05-12T07:10:12.704Z,36
2018-05-12T07:11:22.642Z,36
2018-05-12T07:12:31.667Z,32
2018-05-12T07:13:40.504Z,36
2018-05-12T07:14:50.459Z,36
2018-05-12T07:16:00.201Z,32
2018-05-12T07:17:09.282Z,36
2018-05-12T07:18:18.789Z,40
2018-05-12T07:19:28.004Z,36
2018-05-12T07:20:37.545Z,36
2018-05-12T07:21:47.278Z,36
2018-05-12T07:22:56.724Z,40
2018-05-12T07:24:05.655Z,32
2018-05-12T07:25:15.078Z,28
2018-05-12T07:26:24.797Z,32
2018-05-12T07:27:34.496Z,28
2018-05-12T07:28:43.667Z,32
2018-05-12T07:29:53.230Z,28
2018-05-12T07:31:02.646Z,32
2018-05-12T07:32:11.858Z,32
2018-05-12T07:33:21.363Z,32
2018-05-12T07:34:31.774Z,36
2018-05-12T07:35:40.428Z,28
2018-05-12T07:36:50.824Z,40
2018-05-12T07:38:00.601Z,40
2018-05-12T07:39:09.884Z,40
2018-05-12T07:40:19.334Z,32
2018-05-12T07:41:29.066Z,32
2018-05-12T07:42:38.255Z,36
2018-05-12T07:43:47.619Z,40
2018-05-12T07:44:57.402Z,36
2018-05-12T07:46:07.099Z,36
2018-05-12T07:47:16.778Z,40
2018-05-12T07:48:26.472Z,44
2018-05-12T07:49:35.153Z,44
2018-05-12T07:50:44.328Z,40
2018-05-12T07:51:54.040Z,36
2018-05-12T07:53:02.951Z,36
2018-05-12T07:54:12.666Z,44
2018-05-12T07:55:22.096Z,36
2018-05-12T07:56:31.007Z,36
2018-05-12T07:57:40.687Z,32
2018-05-12T07:58:49.646Z,40
2018-05-12T07:59:59.087Z,40
2018-05-12T08:01:08.622Z,40
2018-05-12T08:02:18.335Z,40
2018-05-12T08:03:28.243Z,40
2018-05-12T08:04:37.719Z,44
2018-05-12T08:05:47.436Z,44
2018-05-12T08:06:56.652Z,44
2018-05-12T08:08:05.863Z,40
2018-05-12T08:09:15.638Z,40
2018-05-12T08:10:25.069Z,40
2018-05-12T08:11:34.267Z,40
2018-05-12T08:12:43.745Z,44
2018-05-12T08:13:53.253Z,40
2018-05-12T08:15:02.967Z,44
2018-05-12T08:16:12.403Z,40
2018-05-12T08:17:22.088Z,44
2018-05-12T08:18:31.321Z,44
2018-05-12T08:19:40.776Z,40
2018-05-12T08:20:49.963Z,40
2018-05-12T08:21:59.668Z,40
2018-05-12T08:23:09.131Z,36
2018-05-12T08:24:18.886Z,40
2018-05-12T08:25:28.629Z,40
2018-05-12T08:26:38.072Z,40
2018-05-12T08:27:48.015Z,44
2018-05-12T08:28:57.188Z,40
2018-05-12T08:30:06.631Z,40
2018-05-12T08:31:16.169Z,36
2018-05-12T08:32:25.882Z,40
2018-05-12T08:33:35.323Z,44
2018-05-12T08:34:44.779Z,44
2018-05-12T08:35:54.507Z,44
2018-05-12T08:37:03.661Z,40
2018-05-12T08:38:13.154Z,32
2018-05-12T08:39:23.112Z,40
2018-05-12T08:40:33.523Z,40
2018-05-12T08:41:43.557Z,40
2018-05-12T08:42:53.263Z,40
2018-05-12T08:44:02.959Z,44
2018-05-12T08:45:12.391Z,36
2018-05-12T08:46:21.816Z,40
2018-05-12T08:47:31.067Z,44
2018-05-12T08:48:40.791Z,44
2018-05-12T08:49:50.275Z,44
2018-05-12T08:50:59.451Z,44
2018-05-12T08:52:09.157Z,44
2018-05-12T08:53:18.909Z,36
2018-05-12T08:54:28.869Z,36
2018-05-12T08:55:38.921Z,40
2018-05-12T08:56:48.668Z,40
2018-05-12T08:57:57.594Z,36
2018-05-12T08:59:07.029Z,36
2018-05-12T09:00:16.720Z,32
2018-05-12T09:01:26.173Z,28
2018-05-12T09:02:35.625Z,36
2018-05-12T09:03:45.108Z,36
2018-05-12T09:04:55.356Z,40
2018-05-12T09:06:04.559Z,40
2018-05-12T09:07:14.560Z,40
2018-05-12T09:08:24.680Z,40
2018-05-12T09:09:34.363Z,44
2018-05-12T09:10:43.569Z,40
2018-05-12T09:11:53.071Z,36
2018-05-12T09:13:01.970Z,40
2018-05-12T09:14:11.435Z,40
2018-05-12T09:15:20.671Z,40
2018-05-12T09:16:30.103Z,40
2018-05-12T09:17:39.835Z,36
2018-05-12T09:18:49.260Z,36
2018-05-12T09:19:58.481Z,32
2018-05-12T09:21:07.932Z,36
2018-05-12T09:22:17.392Z,40
2018-05-12T09:23:27.093Z,40
2018-05-12T09:24:37.047Z,40
2018-05-12T09:25:46.421Z,40
2018-05-12T09:26:55.564Z,36
2018-05-12T09:28:04.468Z,36
2018-05-12T09:29:13.682Z,36
2018-05-12T09:30:22.863Z,36
2018-05-12T09:31:32.263Z,36
2018-05-12T09:32:41.717Z,32
2018-05-12T09:33:51.189Z,36
2018-05-12T09:35:00.623Z,32
2018-05-12T09:36:10.577Z,32
2018-05-12T09:37:20.131Z,28
2018-05-12T09:38:29.845Z,32
2018-05-12T09:39:39.271Z,32
2018-05-12T09:40:48.489Z,28
2018-05-12T09:41:57.918Z,32
2018-05-12T09:43:07.365Z,32
2018-05-12T09:44:17.047Z,28
2018-05-12T09:45:26.262Z,28
2018-05-12T09:46:35.952Z,24
2018-05-12T09:47:45.137Z,28
2018-05-12T09:48:54.593Z,28
2018-05-12T09:50:04.571Z,28
2018-05-12T09:51:14.287Z,28
2018-05-12T09:52:24.199Z,28
2018-05-12T09:53:33.854Z,28
2018-05-12T09:54:43.564Z,32
2018-05-12T09:55:53.021Z,28
2018-05-12T09:57:02.750Z,32
2018-05-12T09:58:11.947Z,36
2018-05-12T09:59:21.660Z,36
2018-05-12T10:00:30.555Z,36
2018-05-12T10:01:40.018Z,36
2018-05-12T10:02:50.008Z,32
2018-05-12T10:03:59.184Z,32
2018-05-12T10:05:08.660Z,36
2018-05-12T10:06:18.118Z,40
2018-05-12T10:07:27.821Z,36
2018-05-12T10:08:37.033Z,36
2018-05-12T10:09:46.226Z,36
2018-05-12T10:10:55.768Z,36
2018-05-12T10:12:05.027Z,36
2018-05-12T10:13:14.477Z,32
2018-05-12T10:14:23.949Z,36
2018-05-12T10:15:34.376Z,36
2018-05-12T10:16:43.945Z,36
2018-05-12T10:17:53.374Z,32
2018-05-12T10:19:02.802Z,36
2018-05-12T10:20:12.502Z,36
2018-05-12T10:21:22.829Z,32
2018-05-12T10:22:33.047Z,32
2018-05-12T10:23:42.777Z,36
2018-05-12T10:24:52.192Z,28
2018-05-12T10:26:01.623Z,32
2018-05-12T10:27:11.676Z,32
2018-05-12T10:28:21.103Z,32
2018-05-12T10:29:31.045Z,32
2018-05-12T10:30:39.948Z,32
2018-05-12T10:31:48.864Z,28
2018-05-12T10:32:58.597Z,28
2018-05-12T10:34:08.146Z,28
2018-05-12T10:35:17.060Z,32
2018-05-12T10:36:26.485Z,24
2018-05-12T10:37:35.667Z,28
2018-05-12T10:38:44.587Z,28
2018-05-12T10:39:54.058Z,32
2018-05-12T10:41:03.362Z,32
2018-05-12T10:42:13.074Z,32
2018-05-12T10:43:22.277Z,32
2018-05-12T10:44:31.484Z,28
2018-05-12T10:45:41.503Z,32
2018-05-12T10:46:50.969Z,32
2018-05-12T10:48:00.158Z,32
2018-05-12T10:49:10.099Z,28
2018-05-12T10:50:19.522Z,32
2018-05-12T10:51:28.938Z,28
2018-05-12T10:52:38.391Z,28
2018-05-12T10:53:47.640Z,28
2018-05-12T10:54:57.331Z,32
2018-05-12T10:56:06.844Z,32
2018-05-12T10:57:16.824Z,28
2018-05-12T10:58:26.030Z,28
2018-05-12T10:59:34.988Z,28
2018-05-12T11:00:44.427Z,24
2018-05-12T11:01:54.331Z,28
2018-05-12T11:03:03.872Z,24
2018-05-12T11:04:13.319Z,24
2018-05-12T11:05:22.773Z,24
2018-05-12T11:06:32.465Z,24
2018-05-12T11:07:41.381Z,24
2018-05-12T11:08:50.294Z,20
2018-05-12T11:10:00.010Z,24
2018-05-12T11:11:09.425Z,28
2018-05-12T11:12:18.636Z,28
2018-05-12T11:13:27.804Z,28
2018-05-12T11:14:37.501Z,20
2018-05-12T11:15:47.364Z,24
2018-05-12T11:16:56.621Z,24
2018-05-12T11:18:06.077Z,24
2018-05-12T11:19:15.778Z,24
2018-05-12T11:20:25.647Z,28
2018-05-12T11:21:35.629Z,28
2018-05-12T11:22:44.897Z,24
2018-05-12T11:23:54.594Z,24
2018-05-12T11:25:04.058Z,24
2018-05-12T11:26:13.228Z,28
2018-05-12T11:27:22.919Z,28
2018-05-12T11:28:32.403Z,24
2018-05-12T11:29:41.930Z,24
2018-05-12T11:30:51.383Z,24
2018-05-12T11:32:00.816Z,24
2018-05-12T11:33:09.975Z,28
2018-05-12T11:34:19.401Z,24
2018-05-12T11:35:29.347Z,24
2018-05-12T11:36:38.545Z,28
2018-05-12T11:37:47.967Z,24
2018-05-12T11:38:57.752Z,24
2018-05-12T11:40:07.467Z,28
2018-05-12T11:41:17.221Z,24
2018-05-12T11:42:26.956Z,24
2018-05-12T11:43:35.904Z,24
2018-05-12T11:44:45.677Z,24
2018-05-12T11:45:55.359Z,28
2018-05-12T11:47:04.783Z,28
2018-05-12T11:48:13.991Z,24
2018-05-12T11:49:23.155Z,24
2018-05-12T11:50:32.605Z,24
2018-05-12T11:51:41.806Z,24
2018-05-12T11:52:51.212Z,32
2018-05-12T11:54:01.012Z,28
2018-05-12T11:55:10.828Z,28
2018-05-12T11:56:20.515Z,28
2018-05-12T11:57:30.215Z,28
2018-05-12T11:58:39.684Z,24
2018-05-12T11:59:49.136Z,28
2018-05-12T12:00:58.149Z,28
2018-05-12T12:02:07.609Z,28
2018-05-12T12:03:17.026Z,24
2018-05-12T12:04:26.699Z,28
2018-05-12T12:05:36.640Z,28
2018-05-12T12:06:46.595Z,28
2018-05-12T12:07:55.547Z,28
2018-05-12T12:09:05.530Z,28
2018-05-12T12:10:14.700Z,32
2018-05-12T12:11:24.388Z,28
2018-05-12T12:12:33.320Z,28
2018-05-12T12:13:42.795Z,28
2018-05-12T12:14:52.485Z,4
2018-05-12T12:16:02.179Z,4
2018-05-12T12:17:12.173Z,4
2018-05-12T12:18:21.626Z,4
2018-05-12T12:19:31.052Z,4
2018-05-12T12:20:40.773Z,8
2018-05-12T12:21:50.459Z,4
2018-05-12T12:22:59.670Z,4
2018-05-12T12:24:08.319Z,4
2018-05-12T12:25:18.116Z,4
2018-05-12T12:26:27.570Z,4
2018-05-12T12:27:37.234Z,8
2018-05-12T12:28:46.926Z,4
2018-05-12T12:29:55.850Z,4
2018-05-12T12:31:05.289Z,8
2018-05-12T12:32:14.720Z,4
2018-05-12T12:33:24.482Z,4
2018-05-12T12:34:34.426Z,4
2018-05-12T12:35:44.125Z,8
2018-05-12T12:36:53.312Z,8
2018-05-12T12:38:02.750Z,4
2018-05-12T12:39:12.186Z,8
2018-05-12T12:40:21.873Z,8
2018-05-12T12:41:31.601Z,8
2018-05-12T12:42:41.027Z,8
2018-05-12T12:43:50.718Z,4
2018-05-12T12:45:00.456Z,8
2018-05-12T12:46:10.549Z,4
2018-05-12T12:47:19.450Z,8
2018-05-12T12:48:28.680Z,8
2018-05-12T12:49:37.610Z,4
2018-05-12T12:50:48.275Z,8
2018-05-12T12:51:57.443Z,8
2018-05-12T12:53:06.920Z,4
2018-05-12T12:54:16.616Z,8
2018-05-12T12:55:26.052Z,8
2018-05-12T12:56:35.964Z,8
2018-05-12T12:57:45.371Z,8
2018-05-12T12:58:54.917Z,8
2018-05-12T13:00:04.394Z,8
2018-05-12T13:01:13.956Z,8
2018-05-12T13:02:23.654Z,8
2018-05-12T13:03:33.092Z,12
2018-05-12T13:04:43.166Z,12
2018-05-12T13:05:52.349Z,8
2018-05-12T13:07:01.283Z,8
2018-05-12T13:08:10.445Z,8
2018-05-12T13:09:20.385Z,8
2018-05-12T13:10:29.565Z,8
2018-05-12T13:11:38.225Z,12
2018-05-12T13:12:47.919Z,8
2018-05-12T13:13:57.342Z,8
2018-05-12T13:15:07.041Z,12
2018-05-12T13:16:16.737Z,8
2018-05-12T13:17:25.892Z,8
2018-05-12T13:18:34.819Z,8
2018-05-12T13:19:44.237Z,8
2018-05-12T13:20:53.464Z,8
2018-05-12T13:22:03.007Z,8
2018-05-12T13:23:12.757Z,8
2018-05-12T13:24:22.684Z,8
2018-05-12T13:25:32.628Z,8
2018-05-12T13:26:41.799Z,8
2018-05-12T13:27:50.711Z,8
2018-05-12T13:29:00.459Z,8
2018-05-12T13:30:09.639Z,8
2018-05-12T13:31:18.810Z,8
2018-05-12T13:32:28.060Z,8
2018-05-12T13:33:37.708Z,8
2018-05-12T13:34:47.227Z,8
2018-05-12T13:35:56.669Z,8
2018-05-12T13:37:05.829Z,8
2018-05-12T13:38:15.291Z,12
2018-05-12T13:39:24.987Z,8
2018-05-12T13:40:34.632Z,8
2018-05-12T13:41:44.597Z,8
2018-05-12T13:42:53.640Z,8
2018-05-12T13:44:03.081Z,8
2018-05-12T13:45:12.906Z,8
2018-05-12T13:46:22.160Z,8
2018-05-12T13:47:31.335Z,4
2018-05-12T13:48:41.275Z,4
2018-05-12T13:49:50.706Z,8
2018-05-12T13:51:00.156Z,8
2018-05-12T13:52:09.371Z,8
2018-05-12T13:53:18.808Z,8
2018-05-12T13:54:28.032Z,8
2018-05-12T13:55:37.579Z,8
2018-05-12T13:56:47.138Z,8
2018-05-12T13:57:57.111Z,8
2018-05-12T13:59:06.569Z,8
2018-05-12T14:00:16.001Z,8
2018-05-12T14:01:25.157Z,8
2018-05-12T14:02:34.588Z,8
2018-05-12T14:03:44.012Z,4
2018-05-12T14:04:53.163Z,8
2018-05-12T14:06:02.591Z,8
2018-05-12T14:07:11.496Z,8
2018-05-12T14:08:20.942Z,8
2018-05-12T14:09:30.352Z,4
2018-05-12T14:10:39.781Z,8
2018-05-12T14:11:49.460Z,8
2018-05-12T14:12:58.877Z,8
2018-05-12T14:14:08.291Z,8
2018-05-12T14:15:17.734Z,8
2018-05-12T14:16:27.178Z,8
2018-05-12T14:17:36.348Z,8
2018-05-12T14:18:45.504Z,8
2018-05-12T14:19:55.012Z,8
2018-05-12T14:21:04.448Z,8
2018-05-12T14:22:13.867Z,4
2018-05-12T14:23:23.044Z,8
2018-05-12T14:24:32.542Z,4
2018-05-12T14:25:42.229Z,4
2018-05-12T14:26:51.984Z,8
2018-05-12T14:28:00.893Z,4
2018-05-12T14:29:10.578Z,8
2018-05-12T14:30:19.992Z,4
2018-05-12T14:31:28.880Z,4
2018-05-12T14:32:37.797Z,4
2018-05-12T14:33:47.477Z,4
2018-05-12T14:34:56.642Z,4
2018-05-12T14:36:06.569Z,4
2018-05-12T14:37:15.464Z,4
2018-05-12T14:38:25.163Z,4
2018-05-12T14:39:34.596Z,4
2018-05-12T14:40:43.806Z,4
2018-05-12T14:41:53.320Z,4
2018-05-12T14:43:02.499Z,4
2018-05-12T14:44:11.698Z,4
2018-05-12T14:45:20.873Z,4
2018-05-12T14:46:30.045Z,4
2018-05-12T14:47:39.985Z,4
2018-05-12T14:48:49.659Z,4
2018-05-12T14:49:59.345Z,4
2018-05-12T14:51:08.517Z,4
2018-05-12T14:52:18.453Z,4
2018-05-12T14:53:28.169Z,4
2018-05-12T14:54:37.408Z,4
2018-05-12T14:55:47.103Z,4
2018-05-12T14:56:56.531Z,0
2018-05-12T14:58:06.726Z,0
2018-05-12T14:59:15.943Z,0
2018-05-12T15:00:25.396Z,4
2018-05-12T15:01:35.096Z,4
2018-05-12T15:02:44.272Z,16
2018-05-12T15:03:53.470Z,12
2018-05-12T15:05:02.654Z,12
2018-05-12T15:06:12.072Z,12
2018-05-12T15:07:21.697Z,12
2018-05-12T15:08:31.277Z,12
2018-05-12T15:09:40.456Z,12
2018-05-12T15:10:50.401Z,12
2018-05-12T15:11:59.332Z,12
2018-05-12T15:13:08.753Z,12
2018-05-12T15:14:18.187Z,12
2018-05-12T15:15:27.860Z,12
2018-05-12T15:16:37.054Z,8
2018-05-12T15:17:46.992Z,8
2018-05-12T15:18:56.416Z,8
2018-05-12T15:20:05.911Z,12
2018-05-12T15:21:15.187Z,12
2018-05-12T15:22:24.293Z,12
2018-05-12T15:23:33.227Z,12
2018-05-12T15:24:42.388Z,12
2018-05-12T15:25:52.088Z,8
2018-05-12T15:27:01.551Z,8
2018-05-12T15:28:11.001Z,8
2018-05-12T15:29:20.689Z,8
2018-05-12T15:30:30.100Z,12
2018-05-12T15:31:40.021Z,8
2018-05-12T15:32:49.704Z,8
2018-05-12T15:33:58.610Z,8
2018-05-12T15:35:08.019Z,8
2018-05-12T15:36:17.385Z,4
2018-05-12T15:37:26.659Z,8
2018-05-12T15:38:35.849Z,8
2018-05-12T15:39:45.540Z,8
2018-05-12T15:40:55.012Z,8
2018-05-12T15:42:04.718Z,8
2018-05-12T15:43:14.145Z,8
2018-05-12T15:44:23.324Z,8
2018-05-12T15:45:33.012Z,8
2018-05-12T15:46:42.452Z,8
2018-05-12T15:47:51.649Z,8
2018-05-12T15:49:01.449Z,8
2018-05-12T15:50:10.895Z,8
2018-05-12T15:51:20.086Z,8
2018-05-12T15:52:29.272Z,8
2018-05-12T15:53:38.967Z,8
2018-05-12T15:54:48.141Z,8
2018-05-12T15:55:57.553Z,8
2018-05-12T15:57:07.008Z,8
2018-05-12T15:58:16.478Z,8
2018-05-12T15:59:25.405Z,8
2018-05-12T16:00:35.115Z,8
2018-05-12T16:01:44.496Z,8
2018-05-12T16:02:54.080Z,8
2018-05-12T16:04:03.689Z,8
2018-05-12T16:05:13.137Z,8
2018-05-12T16:06:22.847Z,8
2018-05-12T16:07:32.268Z,8
2018-05-12T16:08:41.431Z,8
2018-05-12T16:09:51.108Z,8
2018-05-12T16:11:00.804Z,8
2018-05-12T16:12:10.273Z,8
2018-05-12T16:13:20.048Z,8
2018-05-12T16:14:29.762Z,8
2018-05-12T16:15:38.934Z,8
2018-05-12T16:16:48.402Z,8
2018-05-12T16:17:58.083Z,8
2018-05-12T16:19:07.537Z,8
2018-05-12T16:20:17.252Z,8
2018-05-12T16:21:26.887Z,8
2018-05-12T16:22:36.044Z,8
2018-05-12T16:23:45.721Z,8
2018-05-12T16:24:55.195Z,4
2018-05-12T16:26:04.396Z,4
2018-05-12T16:27:13.330Z,8
2018-05-12T16:28:22.779Z,8
2018-05-12T16:29:32.486Z,4
2018-05-12T16:30:42.160Z,4
2018-05-12T16:31:51.875Z,4
2018-05-12T16:33:01.316Z,8
2018-05-12T16:34:11.285Z,8
2018-05-12T16:35:20.986Z,8
2018-05-12T16:36:30.658Z,8
2018-05-12T16:37:40.096Z,8
2018-05-12T16:38:49.825Z,4
2018-05-12T16:39:59.036Z,8
2018-05-12T16:41:08.816Z,8
2018-05-12T16:42:18.020Z,8
2018-05-12T16:43:27.721Z,8
2018-05-12T16:44:36.701Z,8
2018-05-12T16:45:46.260Z,8
2018-05-12T16:46:56.229Z,4
2018-05-12T16:48:06.194Z,4
2018-05-12T16:49:15.357Z,4
2018-05-12T16:50:25.075Z,4
2018-05-12T16:51:34.253Z,4